Time;durP1;ratioP1;P1;durP2;ratioP2;P2;SDS_P1;SDS_P2;PMS_P1;PMS_P2;Temp;Humidity;BMP_temperature;BMP_pressure;BME280_temperature;BME280_humidity;BME280_pressure;Samples;Min_cycle;Max_cycle;Signal;HPM_P1;HPM_P2
2022/08/30 00:01:31;;;;;;;1.50;1.42;;;16.10;99.90;;;;;;5113840;28;20024;-78
2022/08/30 00:03:58;;;;;;;4.43;1.33;;;16.10;99.90;;;;;;5096181;28;20038;-73
2022/08/30 00:06:25;;;;;;;1.67;1.58;;;16.10;99.90;;;;;;5114607;28;20028;-77
2022/08/30 00:08:52;;;;;;;1.15;1.05;;;16.00;99.90;;;;;;5114373;28;20030;-78
2022/08/30 00:11:21;;;;;;;1.60;1.42;;;16.00;99.90;;;;;;5114427;28;20522;-77
2022/08/30 00:13:49;;;;;;;1.10;1.10;;;16.00;99.90;;;;;;5114189;28;20042;-77
2022/08/30 00:16:15;;;;;;;1.17;1.17;;;16.00;99.90;;;;;;5114152;28;20032;-77
2022/08/30 00:18:41;;;;;;;1.85;1.70;;;15.90;99.90;;;;;;5114177;28;20016;-76
2022/08/30 00:21:09;;;;;;;2.30;1.63;;;15.90;99.90;;;;;;5114094;28;20093;-75
2022/08/30 00:23:35;;;;;;;2.30;0.85;;;15.70;99.90;;;;;;5114147;28;20019;-78
2022/08/30 00:26:01;;;;;;;4.43;1.20;;;15.70;99.90;;;;;;5095835;28;20028;-79
2022/08/30 00:28:27;;;;;;;1.42;1.40;;;15.70;99.90;;;;;;5114083;28;20027;-74
2022/08/30 00:30:54;;;;;;;1.20;1.02;;;15.70;99.90;;;;;;5113886;28;20020;-78
2022/08/30 00:33:20;;;;;;;1.20;1.10;;;15.70;99.90;;;;;;5113924;28;20028;-73
2022/08/30 00:35:46;;;;;;;1.83;1.42;;;15.70;99.90;;;;;;5113842;28;20321;-79
2022/08/30 00:38:13;;;;;;;1.88;1.02;;;15.60;99.90;;;;;;5113938;28;20486;-75
2022/08/30 00:40:40;;;;;;;3.00;2.17;;;15.60;99.90;;;;;;5113927;28;20028;-79
2022/08/30 00:43:10;;;;;;;1.95;1.38;;;15.50;99.90;;;;;;5113834;28;20051;-79
2022/08/30 00:45:37;;;;;;;1.55;1.25;;;15.40;99.90;;;;;;5113927;28;20043;-77
2022/08/30 00:48:05;;;;;;;1.00;0.98;;;15.40;99.90;;;;;;5113853;28;20050;-78
2022/08/30 00:50:42;;;;;;;0.57;0.57;;;15.30;99.90;;;;;;5113629;28;20478;-78
2022/08/30 00:53:13;;;;;;;2.40;1.88;;;15.30;99.90;;;;;;5113648;28;20024;-73
2022/08/30 00:55:40;;;;;;;1.77;1.67;;;15.20;99.90;;;;;;5114083;28;20016;-76
2022/08/30 00:58:09;;;;;;;3.28;0.95;;;15.30;99.90;;;;;;5114155;28;20464;-77
2022/08/30 01:00:35;;;;;;;2.87;2.60;;;15.20;99.90;;;;;;5114008;28;20036;-73
2022/08/30 01:03:01;;;;;;;1.92;1.83;;;15.20;99.90;;;;;;5113878;28;20058;-76
2022/08/30 01:05:27;;;;;;;1.70;1.55;;;15.10;99.90;;;;;;5113681;28;20027;-78
2022/08/30 01:07:53;;;;;;;1.83;1.73;;;15.20;99.90;;;;;;5113352;28;20361;-78
2022/08/30 01:10:18;;;;;;;1.45;1.35;;;15.20;99.90;;;;;;5113426;28;20059;-76
2022/08/30 01:12:45;;;;;;;1.52;1.30;;;15.20;99.90;;;;;;5113466;28;20028;-75
2022/08/30 01:15:13;;;;;;;4.63;2.65;;;15.20;99.90;;;;;;5116380;28;20483;-77
2022/08/30 01:17:40;;;;;;;1.05;0.98;;;15.20;99.90;;;;;;5117687;28;20436;-78
2022/08/30 01:20:24;;;;;;;2.50;1.40;;;15.20;99.90;;;;;;5117653;28;20064;-77
2022/08/30 01:22:50;;;;;;;2.00;1.67;;;15.10;99.90;;;;;;5117847;28;20372;-72
2022/08/30 01:25:26;;;;;;;2.00;1.30;;;16.60;99.90;;;;;;5117782;28;20512;-78
2022/08/30 01:28:05;;;;;;;1.10;1.10;;;15.10;99.90;;;;;;5117371;28;20123;-78
2022/08/30 01:30:32;;;;;;;3.47;1.63;;;15.10;99.90;;;;;;5118108;28;20076;-76
2022/08/30 01:33:01;;;;;;;1.67;1.38;;;15.10;99.90;;;;;;5099502;28;20392;-77
2022/08/30 01:35:32;;;;;;;2.40;2.08;;;15.10;99.90;;;;;;5117334;28;20484;-77
2022/08/30 01:37:57;;;;;;;2.05;1.85;;;15.00;99.90;;;;;;5117318;28;20024;-78
2022/08/30 01:40:23;;;;;;;2.47;1.65;;;15.10;99.90;;;;;;5117253;28;20551;-79
2022/08/30 01:42:49;;;;;;;1.42;1.35;;;15.00;99.90;;;;;;5117085;28;20478;-78
2022/08/30 01:45:15;;;;;;;4.00;1.50;;;15.00;99.90;;;;;;5117000;28;20031;-73
2022/08/30 01:47:41;;;;;;;3.25;1.20;;;14.90;99.90;;;;;;5116895;28;20035;-78
2022/08/30 01:50:08;;;;;;;1.25;1.13;;;14.90;99.90;;;;;;5098918;28;20051;-77
2022/08/30 01:52:34;;;;;;;2.40;1.23;;;14.90;99.90;;;;;;5117042;28;20042;-77
2022/08/30 01:55:00;;;;;;;2.33;1.80;;;14.90;99.90;;;;;;5117449;28;20091;-75
2022/08/30 01:57:27;;;;;;;0.93;0.93;;;14.90;99.90;;;;;;5117126;28;20078;-78
2022/08/30 01:59:53;;;;;;;2.45;1.25;;;14.90;99.90;;;;;;5116819;28;20023;-73
2022/08/30 02:02:24;;;;;;;1.33;0.77;;;14.80;99.90;;;;;;5116525;28;20071;-79
2022/08/30 02:04:51;;;;;;;2.03;1.92;;;14.80;99.90;;;;;;5116640;28;20019;-76
2022/08/30 02:07:17;;;;;;;2.67;1.65;;;14.70;99.90;;;;;;5116721;28;20468;-78
2022/08/30 02:09:43;;;;;;;2.72;1.38;;;14.80;99.90;;;;;;5116914;28;20030;-74
2022/08/30 02:12:09;;;;;;;1.63;1.52;;;14.70;99.90;;;;;;5116727;28;20023;-74
2022/08/30 02:14:36;;;;;;;1.15;0.90;;;14.70;99.90;;;;;;5116810;28;20023;-73
2022/08/30 02:17:03;;;;;;;2.47;1.70;;;14.70;99.90;;;;;;5116655;28;20023;-73
2022/08/30 02:19:29;;;;;;;2.03;1.88;;;14.60;99.90;;;;;;5116958;28;20121;-73
2022/08/30 02:21:55;;;;;;;1.80;1.65;;;14.60;99.90;;;;;;5116808;28;20079;-72
2022/08/30 02:24:21;;;;;;;3.00;2.42;;;14.60;99.90;;;;;;5116642;28;20015;-73
2022/08/30 02:26:47;;;;;;;1.45;1.20;;;14.60;99.90;;;;;;5116329;28;20036;-73
2022/08/30 02:29:13;;;;;;;1.58;1.17;;;14.60;99.90;;;;;;5116549;28;20099;-78
2022/08/30 02:31:39;;;;;;;1.52;1.42;;;14.50;99.90;;;;;;5116398;28;20108;-73
2022/08/30 02:34:04;;;;;;;3.63;1.77;;;14.50;99.90;;;;;;5116243;28;20051;-73
2022/08/30 02:36:30;;;;;;;4.40;2.38;;;14.40;99.90;;;;;;5116430;28;20043;-79
2022/08/30 02:38:56;;;;;;;3.50;1.63;;;14.40;99.90;;;;;;5116400;28;20507;-78
2022/08/30 02:41:22;;;;;;;1.73;1.63;;;14.40;99.90;;;;;;5116170;28;20023;-73
2022/08/30 02:43:49;;;;;;;0.82;0.82;;;14.50;99.90;;;;;;5116508;28;20024;-78
2022/08/30 02:46:15;;;;;;;1.05;1.00;;;14.40;99.90;;;;;;5097580;28;20023;-77
2022/08/30 02:48:41;;;;;;;1.38;1.30;;;14.40;99.90;;;;;;5115837;28;20055;-78
2022/08/30 02:51:10;;;;;;;4.68;1.45;;;14.40;99.90;;;;;;5115986;28;20054;-77
2022/08/30 02:53:36;;;;;;;1.38;1.27;;;14.30;99.90;;;;;;5116204;28;20411;-75
2022/08/30 02:56:02;;;;;;;2.97;2.35;;;14.30;99.90;;;;;;5116159;28;20038;-77
2022/08/30 02:58:28;;;;;;;1.60;1.50;;;14.30;99.90;;;;;;5115980;28;20024;-77
2022/08/30 03:00:53;;;;;;;1.65;1.55;;;14.30;99.90;;;;;;5115714;28;20073;-75
2022/08/30 03:03:19;;;;;;;1.30;1.17;;;14.20;99.90;;;;;;5115582;28;20047;-76
2022/08/30 03:05:45;;;;;;;1.90;1.33;;;14.20;99.90;;;;;;5115648;28;20080;-77
2022/08/30 03:08:10;;;;;;;5.05;3.22;;;14.20;99.90;;;;;;5097303;28;20032;-77
2022/08/30 03:10:37;;;;;;;1.85;1.48;;;14.20;99.90;;;;;;5115805;28;20015;-75
2022/08/30 03:13:04;;;;;;;1.25;1.23;;;14.20;99.90;;;;;;5115634;28;20384;-78
2022/08/30 03:15:30;;;;;;;1.17;1.08;;;14.10;99.90;;;;;;5115766;28;20021;-75
2022/08/30 03:17:56;;;;;;;1.05;1.05;;;14.00;99.90;;;;;;5115603;28;20413;-77
2022/08/30 03:20:23;;;;;;;1.33;1.20;;;14.00;99.90;;;;;;5115718;28;20027;-76
2022/08/30 03:22:49;;;;;;;1.35;1.35;;;13.90;99.90;;;;;;5115697;28;20042;-75
2022/08/30 03:25:15;;;;;;;1.92;1.50;;;13.80;99.90;;;;;;5115583;28;20503;-73
2022/08/30 03:27:41;;;;;;;3.25;2.28;;;13.80;99.90;;;;;;5115620;28;20430;-77
2022/08/30 03:30:08;;;;;;;5.80;1.80;;;13.80;99.90;;;;;;5115501;28;20529;-76
2022/08/30 03:32:34;;;;;;;2.05;1.90;;;13.80;99.90;;;;;;5115339;28;20028;-73
2022/08/30 03:35:00;;;;;;;1.75;1.45;;;13.70;99.90;;;;;;5115257;28;20030;-75
2022/08/30 03:37:26;;;;;;;2.47;2.28;;;13.70;99.90;;;;;;5114292;28;20094;-74
2022/08/30 03:39:53;;;;;;;1.98;1.63;;;13.70;99.90;;;;;;5115159;28;20012;-77
2022/08/30 03:42:18;;;;;;;2.20;1.15;;;13.70;99.90;;;;;;5115320;28;20103;-73
2022/08/30 03:44:45;;;;;;;4.13;2.05;;;13.70;99.90;;;;;;5115387;28;20063;-75
2022/08/30 03:47:10;;;;;;;1.83;1.75;;;13.70;99.90;;;;;;5115205;28;20106;-75
2022/08/30 03:49:36;;;;;;;1.23;0.88;;;13.60;99.90;;;;;;5114972;28;20055;-75
2022/08/30 03:52:02;;;;;;;13.07;2.50;;;13.60;99.90;;;;;;5115024;28;20026;-77
2022/08/30 03:54:29;;;;;;;4.32;3.05;;;13.60;99.90;;;;;;5114994;28;20380;-73
2022/08/30 03:56:55;;;;;;;2.53;1.90;;;13.60;99.90;;;;;;5096718;28;20023;-73
2022/08/30 03:59:21;;;;;;;1.65;0.70;;;13.60;99.90;;;;;;5114963;28;20090;-73
2022/08/30 04:01:46;;;;;;;1.90;1.80;;;13.60;99.90;;;;;;5114870;28;20463;-72
2022/08/30 04:04:13;;;;;;;1.42;1.35;;;13.60;99.90;;;;;;5096660;28;20054;-76
2022/08/30 04:06:39;;;;;;;1.63;1.15;;;13.60;99.90;;;;;;5114624;28;20388;-77
2022/08/30 04:09:05;;;;;;;1.25;1.20;;;13.60;99.90;;;;;;5114638;28;20535;-75
2022/08/30 04:11:31;;;;;;;2.17;1.50;;;13.60;99.90;;;;;;5114601;28;20430;-73
2022/08/30 04:13:57;;;;;;;1.38;1.27;;;13.60;99.90;;;;;;5114635;28;20020;-77
2022/08/30 04:16:24;;;;;;;0.95;0.95;;;13.70;99.90;;;;;;5114712;28;20101;-73
2022/08/30 04:18:49;;;;;;;1.80;1.70;;;13.70;99.90;;;;;;5114862;28;20028;-73
2022/08/30 04:21:15;;;;;;;2.80;1.65;;;13.60;99.90;;;;;;5114716;28;20016;-73
2022/08/30 04:23:42;;;;;;;1.85;1.58;;;13.50;99.90;;;;;;5114768;28;20023;-73
2022/08/30 04:26:08;;;;;;;3.50;2.03;;;13.50;99.90;;;;;;5114297;28;20094;-76
2022/08/30 04:28:35;;;;;;;2.08;1.48;;;13.50;99.90;;;;;;5095948;28;20100;-73
2022/08/30 04:31:08;;;;;;;1.40;1.23;;;13.50;99.90;;;;;;5115536;28;20020;-76
2022/08/30 04:33:34;;;;;;;1.33;1.27;;;13.50;99.90;;;;;;5114316;28;20429;-76
2022/08/30 04:36:03;;;;;;;0.95;0.95;;;13.60;99.90;;;;;;5114460;28;20027;-77
2022/08/30 04:38:30;;;;;;;3.17;2.65;;;13.60;99.90;;;;;;5114393;28;20468;-77
2022/08/30 04:40:56;;;;;;;2.53;1.83;;;13.70;99.90;;;;;;5096202;28;20062;-74
2022/08/30 04:43:25;;;;;;;3.38;2.22;;;13.70;99.90;;;;;;5114239;28;20468;-73
2022/08/30 04:45:51;;;;;;;1.83;1.65;;;13.70;99.90;;;;;;5095869;28;20137;-73
2022/08/30 04:48:17;;;;;;;3.80;3.50;;;13.80;99.90;;;;;;5113815;28;20043;-73
2022/08/30 04:50:43;;;;;;;1.90;1.60;;;13.90;99.90;;;;;;5114178;28;20019;-74
2022/08/30 04:53:08;;;;;;;1.88;1.77;;;14.00;99.90;;;;;;5114040;28;20365;-73
2022/08/30 04:55:34;;;;;;;1.48;1.38;;;14.00;99.90;;;;;;5114058;28;20403;-75
2022/08/30 04:58:00;;;;;;;1.35;1.15;;;13.90;99.90;;;;;;5113744;28;20491;-77
2022/08/30 05:00:26;;;;;;;2.60;1.30;;;13.80;99.90;;;;;;5113821;28;20020;-77
2022/08/30 05:02:52;;;;;;;1.33;1.23;;;13.80;99.90;;;;;;5113741;28;20075;-73
2022/08/30 05:08:01;;;;;;;6.30;2.80;;;14.00;99.90;;;;;;5114111;28;20112;-77
2022/08/30 05:10:27;;;;;;;2.15;1.77;;;14.10;99.90;;;;;;5113991;28;20019;-76
2022/08/30 05:12:53;;;;;;;2.15;1.92;;;14.00;99.90;;;;;;5113781;28;20016;-75
2022/08/30 05:15:21;;;;;;;2.30;1.05;;;14.00;99.90;;;;;;5113748;28;20031;-76
2022/08/30 05:17:47;;;;;;;2.58;0.95;;;14.00;99.90;;;;;;5113614;28;20539;-77
2022/08/30 05:20:13;;;;;;;2.78;1.45;;;14.10;99.90;;;;;;5113805;28;20353;-76
2022/08/30 05:22:48;;;;;;;1.55;1.45;;;14.20;99.90;;;;;;5113591;28;20035;-78
2022/08/30 05:25:22;;;;;;;0.85;0.73;;;14.30;99.90;;;;;;5113476;28;20030;-77
2022/08/30 05:27:47;;;;;;;3.50;2.40;;;14.40;99.90;;;;;;5095027;28;20100;-76
2022/08/30 05:30:15;;;;;;;2.40;2.20;;;14.40;99.90;;;;;;5113342;28;20023;-76
2022/08/30 05:32:41;;;;;;;2.45;1.83;;;14.40;99.90;;;;;;5113223;28;20024;-77
2022/08/30 05:35:09;;;;;;;2.83;1.67;;;14.40;99.90;;;;;;5113294;28;20046;-78
2022/08/30 05:37:35;;;;;;;3.80;1.73;;;14.50;99.90;;;;;;5113312;28;20047;-77
2022/08/30 05:40:01;;;;;;;1.27;1.17;;;14.70;99.90;;;;;;5095082;28;20047;-74
2022/08/30 05:42:27;;;;;;;1.35;0.75;;;14.90;99.90;;;;;;5113371;28;20027;-76
2022/08/30 05:44:53;;;;;;;0.60;0.60;;;14.90;99.90;;;;;;5113445;28;20039;-77
2022/08/30 05:47:20;;;;;;;1.33;1.23;;;15.00;99.90;;;;;;5095187;28;20073;-79
2022/08/30 05:49:47;;;;;;;1.05;1.00;;;15.10;99.90;;;;;;5095080;28;20023;-79
2022/08/30 05:52:16;;;;;;;0.73;0.73;;;15.30;99.90;;;;;;5113423;28;20391;-74
2022/08/30 05:54:50;;;;;;;;;;;15.40;99.90;;;;;;5095843;28;20026;-81
2022/08/30 05:57:16;;;;;;;4.05;1.92;;;15.50;99.90;;;;;;5113441;28;19904;-84
2022/08/30 05:59:41;;;;;;;4.63;1.90;;;15.70;99.90;;;;;;5113855;28;20027;-80
2022/08/30 06:02:08;;;;;;;1.38;1.33;;;15.90;99.90;;;;;;5095857;28;20050;-81
2022/08/30 06:04:35;;;;;;;3.10;1.00;;;16.10;99.90;;;;;;5095726;28;20020;-83
2022/08/30 06:07:01;;;;;;;1.65;1.13;;;16.20;99.90;;;;;;5096534;28;20024;-79
2022/08/30 06:09:27;;;;;;;5.78;1.77;;;16.30;99.90;;;;;;5096409;28;20085;-77
2022/08/30 06:11:53;;;;;;;1.20;1.05;;;16.60;99.90;;;;;;5096385;28;20373;-80
2022/08/30 06:14:19;;;;;;;2.72;1.08;;;16.80;99.90;;;;;;5096269;28;20013;-79
2022/08/30 06:16:46;;;;;;;2.35;1.58;;;17.00;99.90;;;;;;5096276;28;20030;-78
2022/08/30 06:19:13;;;;;;;2.88;1.92;;;17.10;99.90;;;;;;5094860;28;20097;-76
2022/08/30 06:21:40;;;;;;;0.80;0.80;;;17.20;99.90;;;;;;5095994;28;20020;-78
2022/08/30 06:24:07;;;;;;;0.88;0.85;;;17.30;99.90;;;;;;5096157;28;20020;-77
2022/08/30 06:26:37;;;;;;;2.55;0.82;;;17.40;99.90;;;;;;5096020;28;20016;-77
2022/08/30 06:29:03;;;;;;;3.55;1.38;;;17.40;99.90;;;;;;5096003;28;20396;-77
2022/08/30 06:31:29;;;;;;;1.42;1.30;;;17.40;99.90;;;;;;5096033;28;20035;-77
2022/08/30 06:33:55;;;;;;;1.35;1.35;;;17.40;99.90;;;;;;5095778;28;20095;-79
2022/08/30 06:36:23;;;;;;;2.33;2.15;;;17.60;99.90;;;;;;5095874;28;20532;-79
2022/08/30 06:38:51;;;;;;;2.05;1.50;;;17.50;99.90;;;;;;5095722;28;20366;-74
2022/08/30 06:41:22;;;;;;;2.58;1.77;;;17.70;99.90;;;;;;5095750;28;20043;-77
2022/08/30 06:43:48;;;;;;;2.80;1.10;;;17.80;99.90;;;;;;5095713;28;20468;-77
2022/08/30 06:46:17;;;;;;;1.45;1.23;;;18.00;99.90;;;;;;5095769;28;20028;-79
2022/08/30 06:48:43;;;;;;;3.78;2.45;;;18.20;99.90;;;;;;5094263;28;20119;-75
2022/08/30 06:51:09;;;;;;;1.70;1.60;;;18.60;99.90;;;;;;5095564;28;20099;-77
2022/08/30 06:53:35;;;;;;;1.98;1.42;;;18.90;99.90;;;;;;5096246;28;20059;-74
2022/08/30 06:56:06;;;;;;;2.13;1.95;;;19.10;99.90;;;;;;5096256;28;20016;-78
2022/08/30 06:58:33;;;;;;;1.55;1.25;;;19.40;99.90;;;;;;5095358;28;20041;-78
2022/08/30 07:00:59;;;;;;;0.80;0.80;;;19.70;99.90;;;;;;5095394;28;20122;-74
2022/08/30 07:03:28;;;;;;;6.13;1.65;;;19.90;99.90;;;;;;5093841;28;20052;-74
2022/08/30 07:05:55;;;;;;;1.65;1.00;;;20.00;99.90;;;;;;5093830;28;20035;-79
2022/08/30 07:08:21;;;;;;;1.67;1.55;;;20.10;99.90;;;;;;5093743;28;20397;-79
2022/08/30 07:10:48;;;;;;;2.40;1.75;;;20.10;99.90;;;;;;5094950;28;20020;-77
2022/08/30 07:13:14;;;;;;;3.58;1.50;;;20.30;99.90;;;;;;5093736;28;20141;-78
2022/08/30 07:15:41;;;;;;;1.60;1.50;;;20.50;99.90;;;;;;5095087;28;20016;-77
2022/08/30 07:20:53;;;;;;;5.82;1.55;;;20.60;99.90;;;;;;5095594;28;20503;-75
2022/08/30 07:23:18;;;;;;;1.88;1.77;;;20.60;99.90;;;;;;5093941;28;20028;-74
2022/08/30 07:25:45;;;;;;;2.13;1.20;;;20.80;99.90;;;;;;5093987;28;20028;-78
2022/08/30 07:28:11;;;;;;;1.38;1.02;;;21.00;99.90;;;;;;5094766;28;20040;-78
2022/08/30 07:30:37;;;;;;;1.52;1.10;;;21.10;99.90;;;;;;5094639;28;20020;-77
2022/08/30 07:33:03;;;;;;;2.90;1.15;;;21.30;99.90;;;;;;5093432;28;20031;-78
2022/08/30 07:35:30;;;;;;;5.50;2.03;;;21.40;99.90;;;;;;5093862;28;20023;-74
2022/08/30 07:37:57;;;;;;;3.58;1.55;;;21.60;99.90;;;;;;5094604;28;20519;-78
2022/08/30 07:40:23;;;;;;;1.25;1.15;;;21.80;99.90;;;;;;5095030;28;20035;-74
2022/08/30 07:42:49;;;;;;;0.73;0.73;;;22.00;99.90;;;;;;5094528;28;20081;-75
2022/08/30 07:45:14;;;;;;;1.40;1.08;;;22.20;99.90;;;;;;5094386;28;20024;-77
2022/08/30 07:47:40;;;;;;;2.33;1.90;;;22.20;99.90;;;;;;5093130;28;20035;-75
2022/08/30 07:50:07;;;;;;;3.95;2.88;;;22.10;99.90;;;;;;5094802;28;20380;-77
2022/08/30 07:52:33;;;;;;;0.80;0.80;;;22.20;99.90;;;;;;5094318;28;20024;-75
2022/08/30 07:55:00;;;;;;;4.38;1.58;;;22.40;99.90;;;;;;5094512;28;20024;-76
2022/08/30 07:57:26;;;;;;;2.45;1.70;;;22.40;99.90;;;;;;5094396;28;20020;-75
2022/08/30 07:59:52;;;;;;;3.30;1.40;;;22.30;99.90;;;;;;5094231;28;20024;-77
2022/08/30 08:02:18;;;;;;;1.42;1.05;;;22.30;99.90;;;;;;5092714;28;20143;-76
2022/08/30 08:04:45;;;;;;;4.50;2.88;;;22.40;99.90;;;;;;5093925;28;20065;-76
2022/08/30 08:07:11;;;;;;;4.53;1.20;;;22.60;99.90;;;;;;5092731;28;20081;-76
2022/08/30 08:09:38;;;;;;;1.92;1.63;;;22.60;99.90;;;;;;5094344;28;20101;-78
2022/08/30 08:12:05;;;;;;;1.10;0.65;;;22.90;99.90;;;;;;5095694;28;20024;-77
2022/08/30 08:14:31;;;;;;;0.57;0.57;;;23.20;99.90;;;;;;5092681;28;20099;-78
2022/08/30 08:16:57;;;;;;;0.75;0.75;;;23.20;99.90;;;;;;5093914;28;20464;-77
2022/08/30 08:19:23;;;;;;;1.52;1.42;;;23.20;99.90;;;;;;5093874;28;20030;-78
2022/08/30 08:21:49;;;;;;;2.25;1.23;;;23.30;99.90;;;;;;5092526;28;20020;-75
2022/08/30 08:24:15;;;;;;;0.70;0.70;;;23.40;99.90;;;;;;5093601;28;20028;-78
2022/08/30 08:26:41;;;;;;;0.85;0.70;;;23.60;99.90;;;;;;5093842;28;20035;-75
2022/08/30 08:29:08;;;;;;;0.85;0.85;;;24.40;99.90;;;;;;5093717;28;20098;-78
2022/08/30 08:31:34;;;;;;;1.02;0.63;;;24.40;99.90;;;;;;5093692;28;20020;-78
2022/08/30 08:34:06;;;;;;;2.10;1.58;;;24.90;99.90;;;;;;5092088;28;20058;-79
2022/08/30 08:36:33;;;;;;;1.10;0.98;;;25.40;99.90;;;;;;5093685;28;20050;-78
2022/08/30 08:38:59;;;;;;;1.20;0.90;;;25.20;99.90;;;;;;5093534;28;20065;-79
2022/08/30 08:41:44;;;;;;;2.90;1.48;;;24.70;99.90;;;;;;5092075;28;20028;-78
2022/08/30 08:44:27;;;;;;;1.20;1.10;;;24.30;99.90;;;;;;5092202;28;20158;-79
2022/08/30 08:47:19;;;;;;;0.70;0.70;;;24.30;99.90;;;;;;5093522;28;20108;-78
2022/08/30 08:49:48;;;;;;;1.23;1.02;;;24.30;99.90;;;;;;5093396;28;20016;-79
2022/08/30 08:55:14;;;;;;;3.72;1.60;;;24.80;99.90;;;;;;5093436;28;20288;-75
2022/08/30 08:57:40;;;;;;;2.85;1.55;;;25.10;99.90;;;;;;5093241;28;20020;-75
2022/08/30 09:00:09;;;;;;;1.55;1.15;;;25.50;99.90;;;;;;5093837;28;20056;-76
2022/08/30 09:02:39;;;;;;;2.60;0.90;;;26.30;99.90;;;;;;5103779;28;20549;-77
2022/08/30 09:05:05;;;;;;;0.65;0.60;;;27.30;99.90;;;;;;5113474;28;20028;-76
2022/08/30 09:07:38;;;;;;;0.90;0.90;;;28.20;95.00;;;;;;5113037;28;20057;-77
2022/08/30 09:10:06;;;;;;;3.38;1.90;;;28.30;92.70;;;;;;5113824;28;20098;-77
2022/08/30 09:12:31;;;;;;;1.13;1.02;;;28.00;89.50;;;;;;5113590;28;20016;-75
2022/08/30 09:15:17;;;;;;;3.30;0.95;;;27.30;91.40;;;;;;5113389;28;20073;-80
2022/08/30 09:17:55;;;;;;;0.82;0.82;;;26.60;97.80;;;;;;5113338;28;20020;-78
2022/08/30 09:20:47;;;;;;;0.45;0.45;;;25.60;99.90;;;;;;5113392;28;20015;-73
2022/08/30 09:23:15;;;;;;;1.40;0.93;;;25.70;99.90;;;;;;5104304;28;20024;-79
2022/08/30 09:25:54;;;;;;;1.33;0.63;;;25.40;99.90;;;;;;5113568;28;20436;-76
2022/08/30 09:28:24;;;;;;;1.42;1.02;;;25.30;99.90;;;;;;5095094;28;20032;-79
2022/08/30 09:31:16;;;;;;;0.80;0.80;;;24.50;99.90;;;;;;5113289;28;20024;-77
2022/08/30 09:34:04;;;;;;;0.70;0.60;;;24.40;99.90;;;;;;5094892;28;20051;-78
2022/08/30 09:36:39;;;;;;;5.97;1.30;;;24.80;99.90;;;;;;5116389;28;20011;-76
2022/08/30 09:39:14;;;;;;;0.60;0.60;;;25.60;99.90;;;;;;5117315;28;20032;-76
2022/08/30 09:41:43;;;;;;;3.05;0.70;;;25.60;99.90;;;;;;5099024;28;20024;-77
2022/08/30 09:44:09;;;;;;;0.90;0.63;;;25.50;99.90;;;;;;5098999;28;20031;-78
2022/08/30 09:46:43;;;;;;;1.38;1.05;;;26.10;99.90;;;;;;5099147;28;20062;-75
2022/08/30 09:49:27;;;;;;;0.57;0.57;;;26.30;99.90;;;;;;5117231;28;20038;-76
2022/08/30 09:52:15;;;;;;;0.50;0.50;;;26.30;99.90;;;;;;5098778;28;20023;-79
2022/08/30 09:54:59;;;;;;;0.95;0.95;;;26.60;99.90;;;;;;5098630;28;20110;-75
2022/08/30 09:57:31;;;;;;;0.85;0.77;;;26.70;99.90;;;;;;5117146;28;20027;-75
2022/08/30 10:00:07;;;;;;;0.90;0.90;;;27.20;98.90;;;;;;5098687;28;20032;-75
2022/08/30 10:02:57;;;;;;;1.60;1.00;;;27.50;95.00;;;;;;5098941;28;20518;-76
2022/08/30 10:05:47;;;;;;;0.80;0.80;;;27.40;94.40;;;;;;5116871;28;20103;-77
2022/08/30 10:08:25;;;;;;;0.93;0.90;;;28.00;92.70;;;;;;5098255;28;20067;-77
2022/08/30 10:11:42;;;;;;;0.77;0.77;;;28.00;92.60;;;;;;5098476;28;20418;-78
2022/08/30 10:14:28;;;;;;;3.50;0.95;;;28.20;90.40;;;;;;5105532;28;20036;-76
2022/08/30 10:17:12;;;;;;;0.43;0.43;;;28.30;86.80;;;;;;5098511;28;20046;-76
2022/08/30 10:19:40;;;;;;;2.58;0.90;;;28.10;88.70;;;;;;5093848;28;20019;-78
2022/08/30 10:22:27;;;;;;;3.05;1.27;;;28.30;83.30;;;;;;5116588;28;20027;-76
2022/08/30 10:25:07;;;;;;;1.77;0.98;;;28.40;84.70;;;;;;5116381;28;20036;-75
2022/08/30 10:27:44;;;;;;;1.88;1.00;;;28.70;83.50;;;;;;5098193;28;20488;-77
2022/08/30 10:30:13;;;;;;;2.30;1.10;;;28.40;78.70;;;;;;5116499;28;20024;-75
2022/08/30 10:33:04;;;;;;;0.65;0.52;;;28.30;82.50;;;;;;5098154;28;20024;-75
2022/08/30 10:35:36;;;;;;;0.88;0.88;;;28.60;81.90;;;;;;5097777;28;20114;-77
2022/08/30 10:38:23;;;;;;;1.35;0.93;;;28.40;81.60;;;;;;5099125;28;20020;-75
2022/08/30 10:41:14;;;;;;;1.00;0.98;;;28.50;80.10;;;;;;5097801;28;20028;-75
2022/08/30 10:43:45;;;;;;;0.93;0.60;;;28.40;79.80;;;;;;5097772;28;20024;-75
2022/08/30 10:46:23;;;;;;;1.05;0.80;;;28.50;79.50;;;;;;5097366;28;20023;-76
2022/08/30 10:48:49;;;;;;;2.30;0.82;;;28.30;81.20;;;;;;5115543;28;20061;-77
2022/08/30 10:51:38;;;;;;;1.58;1.25;;;28.50;82.40;;;;;;5115795;28;20031;-76
2022/08/30 10:54:31;;;;;;;0.85;0.85;;;28.60;78.70;;;;;;5097622;28;20027;-75
2022/08/30 10:56:57;;;;;;;1.83;1.00;;;28.60;79.30;;;;;;5115874;28;20090;-78
2022/08/30 10:59:23;;;;;;;1.00;0.77;;;29.20;78.60;;;;;;5115822;28;20031;-77
2022/08/30 11:02:15;;;;;;;1.10;0.52;;;29.90;73.00;;;;;;5114987;28;20100;-74
2022/08/30 11:04:43;;;;;;;0.75;0.70;;;30.30;70.10;;;;;;5121814;28;20027;-75
2022/08/30 11:07:27;;;;;;;1.30;0.55;;;31.20;67.40;;;;;;5121098;28;20019;-74
2022/08/30 11:10:02;;;;;;;2.28;0.93;;;31.50;66.30;;;;;;5116522;28;20110;-74
2022/08/30 11:12:31;;;;;;;1.08;0.98;;;31.20;65.00;;;;;;5125645;28;20088;-74
2022/08/30 11:14:58;;;;;;;1.17;0.75;;;31.10;64.20;;;;;;5107564;28;20042;-74
2022/08/30 11:17:54;;;;;;;2.63;0.60;;;31.50;65.60;;;;;;5125276;28;20109;-75
2022/08/30 11:20:34;;;;;;;0.73;0.73;;;31.30;64.00;;;;;;5125038;28;20019;-78
2022/08/30 11:23:44;;;;;;;0.77;0.77;;;30.60;65.60;;;;;;5107105;28;20027;-77
2022/08/30 11:26:17;;;;;;;0.52;0.50;;;30.20;65.50;;;;;;5042937;28;20045;-75
2022/08/30 11:28:46;;;;;;;3.45;1.02;;;30.10;66.10;;;;;;5042619;28;20152;-78
2022/08/30 11:31:14;;;;;;;1.75;0.88;;;29.80;68.80;;;;;;5069261;28;20100;-75
2022/08/30 11:33:50;;;;;;;2.58;1.10;;;30.20;65.90;;;;;;5124782;28;20043;-77
2022/08/30 11:36:28;;;;;;;0.73;0.73;;;30.00;65.80;;;;;;5106614;28;20319;-74
2022/08/30 11:38:54;;;;;;;0.50;0.50;;;30.40;67.60;;;;;;5096228;28;20137;-78
2022/08/30 11:41:43;;;;;;;0.60;0.60;;;31.10;66.60;;;;;;5122141;28;20237;-74
2022/08/30 11:44:20;;;;;;;1.00;1.00;;;31.80;64.30;;;;;;5114841;28;20031;-77
2022/08/30 11:46:48;;;;;;;2.10;0.80;;;31.70;63.10;;;;;;5114567;28;20028;-78
2022/08/30 11:49:17;;;;;;;0.68;0.68;;;31.40;64.00;;;;;;5096213;28;20062;-77
2022/08/30 11:52:24;;;;;;;0.77;0.55;;;31.40;64.10;;;;;;5096117;28;20051;-74
2022/08/30 11:54:55;;;;;;;1.10;1.00;;;31.10;63.40;;;;;;5078608;28;20046;-76
2022/08/30 11:57:49;;;;;;;0.85;0.77;;;31.90;64.80;;;;;;5095447;28;20030;-76
2022/08/30 12:00:36;;;;;;;1.90;1.23;;;32.60;59.70;;;;;;5096163;28;20471;-75
2022/08/30 12:03:07;;;;;;;1.40;0.80;;;32.60;60.10;;;;;;5114443;28;20428;-78
2022/08/30 12:05:38;;;;;;;3.60;1.00;;;32.50;60.90;;;;;;5114464;28;20360;-75
2022/08/30 12:08:32;;;;;;;0.80;0.80;;;32.10;60.50;;;;;;5114390;28;20464;-77
2022/08/30 12:11:07;;;;;;;0.90;0.80;;;31.60;62.10;;;;;;5095918;28;20487;-78
2022/08/30 12:13:34;;;;;;;1.10;1.10;;;31.60;62.00;;;;;;5114545;28;20503;-79
2022/08/30 12:16:13;;;;;;;0.80;0.80;;;31.50;63.70;;;;;;5114141;28;20038;-74
2022/08/30 12:18:56;;;;;;;1.10;0.82;;;31.50;63.80;;;;;;5114534;28;20027;-74
2022/08/30 12:21:23;;;;;;;0.60;0.60;;;31.00;64.50;;;;;;5114123;28;20024;-74
2022/08/30 12:24:10;;;;;;;0.47;0.47;;;30.40;66.50;;;;;;5114050;28;20035;-76
2022/08/30 12:26:39;;;;;;;1.25;1.15;;;30.40;65.90;;;;;;5114035;28;20019;-74
2022/08/30 12:29:25;;;;;;;3.42;1.88;;;30.40;66.80;;;;;;5113981;28;20035;-74
2022/08/30 12:31:54;;;;;;;0.85;0.80;;;31.30;65.00;;;;;;5113782;28;20495;-73
2022/08/30 12:34:44;;;;;;;0.93;0.93;;;31.90;62.40;;;;;;5113906;28;20062;-74
2022/08/30 12:37:25;;;;;;;1.85;1.33;;;32.20;60.80;;;;;;5113858;28;20110;-76
2022/08/30 12:40:22;;;;;;;1.02;0.75;;;32.10;60.20;;;;;;5113843;28;20011;-75
2022/08/30 12:43:00;;;;;;;1.63;1.00;;;32.40;60.40;;;;;;5079774;28;20054;-76
2022/08/30 12:45:30;;;;;;;1.83;1.10;;;33.00;61.40;;;;;;5114500;28;20072;-76
2022/08/30 12:48:06;;;;;;;0.75;0.55;;;33.10;60.00;;;;;;5118706;28;20076;-75
2022/08/30 12:50:53;;;;;;;0.50;0.50;;;32.30;59.30;;;;;;5098461;28;20019;-75
2022/08/30 12:53:26;;;;;;;0.85;0.85;;;32.50;58.70;;;;;;5096664;28;20027;-74
2022/08/30 12:56:08;;;;;;;1.05;0.93;;;33.20;57.70;;;;;;5117467;28;20031;-75
2022/08/30 12:58:42;;;;;;;1.73;1.00;;;33.40;55.80;;;;;;5123554;28;20020;-75
2022/08/30 13:01:25;;;;;;;1.20;0.55;;;32.70;57.60;;;;;;5123392;28;20023;-75
2022/08/30 13:04:12;;;;;;;1.27;1.15;;;32.70;58.40;;;;;;5120946;28;20039;-78
2022/08/30 13:06:38;;;;;;;0.60;0.60;;;32.80;56.30;;;;;;5120340;28;20512;-75
2022/08/30 13:09:03;;;;;;;0.90;0.90;;;32.70;56.90;;;;;;5121887;28;20038;-78
2022/08/30 13:11:29;;;;;;;1.15;0.60;;;33.10;58.10;;;;;;5128351;28;20027;-76
2022/08/30 13:14:38;;;;;;;1.67;1.00;;;32.80;56.40;;;;;;5129788;28;20091;-75